sensor_id;sensor_type;location;lat;lon;timestamp;pressure;altitude;pressure_sealevel;temperature;humidity
45789;BME280;31492;54.856;26.318;2023-03-01T00:01:12;1028.9;;;3.4;71
45789;BME280;31492;54.856;26.318;2023-03-01T00:06:25;1028.9;;;3.4;71
45789;BME280;31492;54.856;26.318;2023-03-01T00:11:30;1028.8;;;3.4;71.1
45789;BME280;31492;54.856;26.318;2023-03-01T00:16:24;1028.7;;;3.4;71.1
45789;BME280;31492;54.856;26.318;2023-03-01T00:21:29;1028.7;;;3.4;71.1
45789;BME280;31492;54.856;26.318;2023-03-01T00:26:25;1028.6;;;3.3;71
45789;BME280;31492;54.856;26.318;2023-03-01T00:31:26;1028.6;;;3.3;70.9
45789;BME280;31492;54.856;26.318;2023-03-01T00:36:17;1028.5;;;3.3;71
45789;BME280;31492;54.856;26.318;2023-03-01T00:41:12;1028.5;;;3.3;70.8
45789;BME280;31492;54.856;26.318;2023-03-01T00:46:33;1028.5;;;3.3;70.8
45789;BME280;31492;54.856;26.318;2023-03-01T00:51:20;1028.4;;;3.3;70.8
45789;BME280;31492;54.856;26.318;2023-03-01T00:56:19;1028.3;;;3.3;70.6
45789;BME280;31492;54.856;26.318;2023-03-01T01:01:13;1028.3;;;3.3;70.5
45789;BME280;31492;54.856;26.318;2023-03-01T01:06:18;1028.3;;;3.3;70.5
45789;BME280;31492;54.856;26.318;2023-03-01T01:11:48;1028.3;;;3.3;70.3
45789;BME280;31492;54.856;26.318;2023-03-01T01:16:26;1028.3;;;3.3;70.3
45789;BME280;31492;54.856;26.318;2023-03-01T01:21:33;1028.2;;;3.3;70.1
45789;BME280;31492;54.856;26.318;2023-03-01T01:26:12;1028.3;;;3.2;70.1
45789;BME280;31492;54.856;26.318;2023-03-01T01:31:11;1028.3;;;3.2;70.1
45789;BME280;31492;54.856;26.318;2023-03-01T01:36:23;1028.2;;;3.2;70
45789;BME280;31492;54.856;26.318;2023-03-01T01:41:12;1028.2;;;3.2;69.9
45789;BME280;31492;54.856;26.318;2023-03-01T01:46:26;1028.2;;;3.2;69.8
45789;BME280;31492;54.856;26.318;2023-03-01T01:51:12;1028.2;;;3.2;69.8
45789;BME280;31492;54.856;26.318;2023-03-01T01:56:23;1028.3;;;3.2;69.7
45789;BME280;31492;54.856;26.318;2023-03-01T02:01:33;1028.2;;;3.3;69.7
45789;BME280;31492;54.856;26.318;2023-03-01T02:06:12;1028.2;;;3.2;69.7
45789;BME280;31492;54.856;26.318;2023-03-01T02:11:33;1028.2;;;3.2;69.7
45789;BME280;31492;54.856;26.318;2023-03-01T02:16:12;1028.1;;;3.2;69.6
45789;BME280;31492;54.856;26.318;2023-03-01T02:21:14;1028.2;;;3.2;69.7
45789;BME280;31492;54.856;26.318;2023-03-01T02:26:24;1028.2;;;3.1;69.6
45789;BME280;31492;54.856;26.318;2023-03-01T02:31:25;1028.2;;;3.2;69.6
45789;BME280;31492;54.856;26.318;2023-03-01T02:36:12;1028.2;;;3.2;69.3
45789;BME280;31492;54.856;26.318;2023-03-01T02:41:19;1028.2;;;3.2;69.4
45789;BME280;31492;54.856;26.318;2023-03-01T02:46:18;1028.2;;;3.2;69.4
45789;BME280;31492;54.856;26.318;2023-03-01T02:51:26;1028.3;;;3.2;69.5
45789;BME280;31492;54.856;26.318;2023-03-01T02:56:55;1028.3;;;3.2;69.3
45789;BME280;31492;54.856;26.318;2023-03-01T03:01:33;1028.3;;;3.2;69.2
45789;BME280;31492;54.856;26.318;2023-03-01T03:06:11;1028.5;;;3.1;69.3
45789;BME280;31492;54.856;26.318;2023-03-01T03:11:29;1028.5;;;3.2;69.3
45789;BME280;31492;54.856;26.318;2023-03-01T03:16:17;1028.6;;;3.2;69
45789;BME280;31492;54.856;26.318;2023-03-01T03:21:11;1028.7;;;3.2;68.9
45789;BME280;31492;54.856;26.318;2023-03-01T03:26:33;1028.7;;;3.1;68.4
45789;BME280;31492;54.856;26.318;2023-03-01T03:31:39;1028.7;;;3;68.5
45789;BME280;31492;54.856;26.318;2023-03-01T03:36:24;1028.8;;;3;68.3
45789;BME280;31492;54.856;26.318;2023-03-01T03:41:29;1028.7;;;3;68.2
45789;BME280;31492;54.856;26.318;2023-03-01T03:46:11;1028.7;;;3;68
45789;BME280;31492;54.856;26.318;2023-03-01T03:51:11;1028.7;;;2.9;68.1
45789;BME280;31492;54.856;26.318;2023-03-01T03:56:17;1028.8;;;2.9;68.1
45789;BME280;31492;54.856;26.318;2023-03-01T04:01:11;1028.8;;;2.9;68.2
45789;BME280;31492;54.856;26.318;2023-03-01T04:06:11;1028.8;;;2.8;68.3
45789;BME280;31492;54.856;26.318;2023-03-01T04:11:11;1028.8;;;2.8;68.2
45789;BME280;31492;54.856;26.318;2023-03-01T04:16:33;1028.8;;;2.8;67.9
45789;BME280;31492;54.856;26.318;2023-03-01T04:21:20;1028.9;;;2.8;68.3
45789;BME280;31492;54.856;26.318;2023-03-01T04:26:29;1029;;;2.8;68.3
45789;BME280;31492;54.856;26.318;2023-03-01T04:31:18;1028.9;;;2.8;68.4
45789;BME280;31492;54.856;26.318;2023-03-01T04:36:12;1029;;;2.7;68.3
45789;BME280;31492;54.856;26.318;2023-03-01T04:41:11;1029.1;;;2.7;68
45789;BME280;31492;54.856;26.318;2023-03-01T04:46:12;1029.2;;;2.6;68.1
45789;BME280;31492;54.856;26.318;2023-03-01T04:51:23;1029.3;;;2.6;67.9
45789;BME280;31492;54.856;26.318;2023-03-01T04:56:17;1029.3;;;2.6;67.7
45789;BME280;31492;54.856;26.318;2023-03-01T05:01:31;1029.3;;;2.6;67.6
45789;BME280;31492;54.856;26.318;2023-03-01T05:06:20;1029.4;;;2.5;67.7
45789;BME280;31492;54.856;26.318;2023-03-01T05:11:25;1029.5;;;2.5;67.6
45789;BME280;31492;54.856;26.318;2023-03-01T05:16:17;1029.5;;;2.6;67.3
45789;BME280;31492;54.856;26.318;2023-03-01T05:21:12;1029.5;;;2.6;67.3
45789;BME280;31492;54.856;26.318;2023-03-01T05:26:19;1029.5;;;2.6;67.3
45789;BME280;31492;54.856;26.318;2023-03-01T05:31:11;1029.5;;;2.6;67.3
45789;BME280;31492;54.856;26.318;2023-03-01T05:36:11;1029.5;;;2.6;67.3
45789;BME280;31492;54.856;26.318;2023-03-01T05:41:13;1029.5;;;2.6;67.3
45789;BME280;31492;54.856;26.318;2023-03-01T05:46:11;1029.7;;;2.6;67.4
45789;BME280;31492;54.856;26.318;2023-03-01T05:51:11;1029.7;;;2.6;67.2
45789;BME280;31492;54.856;26.318;2023-03-01T05:56:11;1029.7;;;2.6;67.2
45789;BME280;31492;54.856;26.318;2023-03-01T06:01:19;1029.9;;;2.6;67
45789;BME280;31492;54.856;26.318;2023-03-01T06:06:11;1030;;;2.6;67
45789;BME280;31492;54.856;26.318;2023-03-01T06:11:19;1030;;;2.8;66.9
45789;BME280;31492;54.856;26.318;2023-03-01T06:16:31;1030;;;2.8;66.7
45789;BME280;31492;54.856;26.318;2023-03-01T06:21:25;1030.1;;;2.9;66.7
45789;BME280;31492;54.856;26.318;2023-03-01T06:26:19;1030;;;2.9;66.7
45789;BME280;31492;54.856;26.318;2023-03-01T06:31:57;1030.2;;;2.9;66.1
45789;BME280;31492;54.856;26.318;2023-03-01T06:36:19;1030.3;;;2.9;66.2
45789;BME280;31492;54.856;26.318;2023-03-01T06:41:11;1030.4;;;2.9;66
45789;BME280;31492;54.856;26.318;2023-03-01T06:46:25;1030.4;;;2.9;66
45789;BME280;31492;54.856;26.318;2023-03-01T06:51:11;1030.4;;;2.9;65.7
45789;BME280;31492;54.856;26.318;2023-03-01T06:56:23;1030.4;;;3;65.5
45789;BME280;31492;54.856;26.318;2023-03-01T07:01:11;1030.4;;;3;65.3
45789;BME280;31492;54.856;26.318;2023-03-01T07:06:33;1030.5;;;3.1;65.1
45789;BME280;31492;54.856;26.318;2023-03-01T07:11:25;1030.6;;;3.2;64.9
45789;BME280;31492;54.856;26.318;2023-03-01T07:16:11;1030.5;;;3.3;64.5
45789;BME280;31492;54.856;26.318;2023-03-01T07:21:23;1030.5;;;3.4;64.5
45789;BME280;31492;54.856;26.318;2023-03-01T07:26:33;1030.6;;;3.5;64.3
45789;BME280;31492;54.856;26.318;2023-03-01T07:31:11;1030.6;;;3.5;64
45789;BME280;31492;54.856;26.318;2023-03-01T07:36:25;1030.6;;;3.5;63.6
45789;BME280;31492;54.856;26.318;2023-03-01T07:41:25;1030.6;;;3.6;63.9
45789;BME280;31492;54.856;26.318;2023-03-01T07:46:33;1030.6;;;3.7;63.3
45789;BME280;31492;54.856;26.318;2023-03-01T07:51:33;1030.6;;;3.7;63.3
45789;BME280;31492;54.856;26.318;2023-03-01T07:56:33;1030.6;;;3.9;63.6
45789;BME280;31492;54.856;26.318;2023-03-01T08:01:13;1030.6;;;4.1;62.9
45789;BME280;31492;54.856;26.318;2023-03-01T08:06:12;1030.6;;;4.3;62
45789;BME280;31492;54.856;26.318;2023-03-01T08:11:33;1030.6;;;4.5;62
45789;BME280;31492;54.856;26.318;2023-03-01T08:16:21;1030.6;;;4.8;61.7
45789;BME280;31492;54.856;26.318;2023-03-01T08:21:21;1030.6;;;5;60.6
45789;BME280;31492;54.856;26.318;2023-03-01T08:26:12;1030.6;;;5.2;60.1
45789;BME280;31492;54.856;26.318;2023-03-01T08:31:34;1030.6;;;5.3;59.7
45789;BME280;31492;54.856;26.318;2023-03-01T08:36:35;1030.6;;;5.5;58.8
45789;BME280;31492;54.856;26.318;2023-03-01T08:41:11;1030.6;;;5.7;57.9
45789;BME280;31492;54.856;26.318;2023-03-01T08:46:23;1030.6;;;6;57
45789;BME280;31492;54.856;26.318;2023-03-01T08:51:12;1030.7;;;6.4;56.3
45789;BME280;31492;54.856;26.318;2023-03-01T08:56:31;1030.7;;;6.8;55.6
45789;BME280;31492;54.856;26.318;2023-03-01T09:01:23;1030.6;;;7.1;53.9
45789;BME280;31492;54.856;26.318;2023-03-01T09:06:33;1030.6;;;7.4;53.3
45789;BME280;31492;54.856;26.318;2023-03-01T09:11:12;1030.6;;;7.7;52.3
45789;BME280;31492;54.856;26.318;2023-03-01T09:16:25;1030.6;;;7.8;51.1
45789;BME280;31492;54.856;26.318;2023-03-01T09:21:33;1030.5;;;8.2;50.8
45789;BME280;31492;54.856;26.318;2023-03-01T09:26:25;1030.5;;;8.4;49.9
45789;BME280;31492;54.856;26.318;2023-03-01T09:31:22;1030.5;;;8.5;48.2
45789;BME280;31492;54.856;26.318;2023-03-01T09:36:20;1030.4;;;8.7;48.6
45789;BME280;31492;54.856;26.318;2023-03-01T09:41:29;1030.4;;;9;47.3
45789;BME280;31492;54.856;26.318;2023-03-01T09:46:29;1030.4;;;9.1;46.6
45789;BME280;31492;54.856;26.318;2023-03-01T09:51:12;1030.3;;;9.3;46.2
45789;BME280;31492;54.856;26.318;2023-03-01T09:56:27;1030.3;;;9.3;45.3
45789;BME280;31492;54.856;26.318;2023-03-01T10:01:19;1030.3;;;8.9;45.5
45789;BME280;31492;54.856;26.318;2023-03-01T10:06:12;1030.3;;;8.5;46.3
45789;BME280;31492;54.856;26.318;2023-03-01T10:11:17;1030.3;;;8.5;46.5
45789;BME280;31492;54.856;26.318;2023-03-01T10:16:38;1030.3;;;8.5;46.7
45789;BME280;31492;54.856;26.318;2023-03-01T10:21:21;1030.3;;;8.1;47.2
45789;BME280;31492;54.856;26.318;2023-03-01T10:26:18;1030.3;;;7.9;47.8
45789;BME280;31492;54.856;26.318;2023-03-01T10:31:24;1030.3;;;8.2;46.9
45789;BME280;31492;54.856;26.318;2023-03-01T10:36:19;1030.2;;;8.1;46
45789;BME280;31492;54.856;26.318;2023-03-01T10:41:24;1030.2;;;7.9;46.2
45789;BME280;31492;54.856;26.318;2023-03-01T10:46:22;1030.2;;;7.7;46.6
45789;BME280;31492;54.856;26.318;2023-03-01T10:51:12;1030.3;;;7.5;47
45789;BME280;31492;54.856;26.318;2023-03-01T10:56:23;1030.3;;;7.4;46.6
45789;BME280;31492;54.856;26.318;2023-03-01T11:01:24;1030.3;;;7.4;47.4
45789;BME280;31492;54.856;26.318;2023-03-01T11:06:23;1030.3;;;7.3;47.7
45789;BME280;31492;54.856;26.318;2023-03-01T11:11:34;1030.3;;;7.3;48.2
45789;BME280;31492;54.856;26.318;2023-03-01T11:16:11;1030.3;;;7.3;48.1
45789;BME280;31492;54.856;26.318;2023-03-01T11:21:24;1030.3;;;7.2;48.4
45789;BME280;31492;54.856;26.318;2023-03-01T11:26:19;1030.3;;;7.1;48.1
45789;BME280;31492;54.856;26.318;2023-03-01T11:31:35;1030.3;;;7;47.8
45789;BME280;31492;54.856;26.318;2023-03-01T11:36:15;1030.2;;;6.8;47.9
45789;BME280;31492;54.856;26.318;2023-03-01T11:41:12;1030.2;;;6.7;47.3
45789;BME280;31492;54.856;26.318;2023-03-01T11:46:46;1030.2;;;6.7;47.3
45789;BME280;31492;54.856;26.318;2023-03-01T17:28:31;1028.9;;;2.6;58.5
45789;BME280;31492;54.856;26.318;2023-03-01T17:33:22;1028.9;;;2.4;59.4
45789;BME280;31492;54.856;26.318;2023-03-01T17:38:40;1028.9;;;2.4;59.8
45789;BME280;31492;54.856;26.318;2023-03-01T17:43:22;1029;;;2.5;59.7
45789;BME280;31492;54.856;26.318;2023-03-01T17:48:34;1029;;;2.5;59.7
45789;BME280;31492;54.856;26.318;2023-03-01T17:53:52;1029;;;2.4;59.9
45789;BME280;31492;54.856;26.318;2023-03-01T17:58:46;1029;;;2.4;60.4
45789;BME280;31492;54.856;26.318;2023-03-01T18:03:32;1028.9;;;2.4;60.5
45789;BME280;31492;54.856;26.318;2023-03-01T18:08:34;1028.9;;;2.3;61.2
45789;BME280;31492;54.856;26.318;2023-03-01T18:13:22;1028.9;;;2.3;61.1
45789;BME280;31492;54.856;26.318;2023-03-01T18:18:30;1028.9;;;2.2;61.2
45789;BME280;31492;54.856;26.318;2023-03-01T18:23:22;1028.8;;;2.3;61.5
45789;BME280;31492;54.856;26.318;2023-03-01T18:28:32;1028.8;;;2.2;61.4
45789;BME280;31492;54.856;26.318;2023-03-01T18:33:34;1028.8;;;2.2;61.8
45789;BME280;31492;54.856;26.318;2023-03-01T18:38:22;1028.7;;;2.2;61.3
45789;BME280;31492;54.856;26.318;2023-03-01T18:43:46;1028.6;;;2.1;61.5
45789;BME280;31492;54.856;26.318;2023-03-01T18:48:22;1028.6;;;2.1;61.8
45789;BME280;31492;54.856;26.318;2023-03-01T18:53:40;1028.6;;;2;62
45789;BME280;31492;54.856;26.318;2023-03-01T18:58:35;1028.6;;;2;62.5
45789;BME280;31492;54.856;26.318;2023-03-01T19:03:32;1028.5;;;1.9;62.7
45789;BME280;31492;54.856;26.318;2023-03-01T19:08:22;1028.5;;;1.9;62.7
45789;BME280;31492;54.856;26.318;2023-03-01T19:13:22;1028.5;;;1.9;62.7
45789;BME280;31492;54.856;26.318;2023-03-01T19:18:41;1028.5;;;1.8;63.2
45789;BME280;31492;54.856;26.318;2023-03-01T19:23:34;1028.5;;;1.7;63.5
45789;BME280;31492;54.856;26.318;2023-03-01T20:28:34;1028.5;;;1.7;63.5
45789;BME280;31492;54.856;26.318;2023-03-01T20:33:46;1028.5;;;2;66.4
45789;BME280;31492;54.856;26.318;2023-03-01T20:58:40;1028.5;;;2.1;65.9
45789;BME280;31492;54.856;26.318;2023-03-01T21:03:32;1028.5;;;2.1;65.9
45789;BME280;31492;54.856;26.318;2023-03-01T21:18:22;1028.5;;;2.3;66.6
45789;BME280;31492;54.856;26.318;2023-03-01T21:23:22;1028.5;;;2.3;66.7
45789;BME280;31492;54.856;26.318;2023-03-01T21:28:34;1028.5;;;2.3;66.7
45789;BME280;31492;54.856;26.318;2023-03-01T21:58:22;1028.5;;;2.3;66.7
45789;BME280;31492;54.856;26.318;2023-03-01T22:03:30;1028.5;;;2.3;66.7
